sensor_id;sensor_type;location;lat;lon;timestamp;temperature;humidity
53208;DHT22;39093;52.788;6.940;2023-05-21T00:01:23;15.60;99.90
53208;DHT22;39093;52.788;6.940;2023-05-21T00:03:51;15.60;99.90
53208;DHT22;39093;52.788;6.940;2023-05-21T00:06:18;15.60;99.90
53208;DHT22;39093;52.788;6.940;2023-05-21T00:08:46;15.60;99.90
53208;DHT22;39093;52.788;6.940;2023-05-21T00:11:13;15.60;99.90
53208;DHT22;39093;52.788;6.940;2023-05-21T00:13:40;15.60;99.90
53208;DHT22;39093;52.788;6.940;2023-05-21T00:16:07;15.60;99.90
53208;DHT22;39093;52.788;6.940;2023-05-21T00:18:38;15.60;99.90
53208;DHT22;39093;52.788;6.940;2023-05-21T00:21:05;15.60;99.90
53208;DHT22;39093;52.788;6.940;2023-05-21T00:23:32;15.60;99.90
53208;DHT22;39093;52.788;6.940;2023-05-21T00:25:59;15.60;99.90
53208;DHT22;39093;52.788;6.940;2023-05-21T00:28:26;15.60;99.90
53208;DHT22;39093;52.788;6.940;2023-05-21T00:30:54;15.60;99.90
53208;DHT22;39093;52.788;6.940;2023-05-21T00:33:21;15.50;99.90
53208;DHT22;39093;52.788;6.940;2023-05-21T00:35:48;15.50;99.90
53208;DHT22;39093;52.788;6.940;2023-05-21T00:38:15;15.50;99.90
53208;DHT22;39093;52.788;6.940;2023-05-21T00:40:44;15.40;99.90
53208;DHT22;39093;52.788;6.940;2023-05-21T00:43:11;15.40;99.90
53208;DHT22;39093;52.788;6.940;2023-05-21T00:45:40;15.30;99.90
53208;DHT22;39093;52.788;6.940;2023-05-21T00:48:12;15.30;99.90
53208;DHT22;39093;52.788;6.940;2023-05-21T00:50:40;15.30;99.90
53208;DHT22;39093;52.788;6.940;2023-05-21T00:53:07;15.30;99.90
53208;DHT22;39093;52.788;6.940;2023-05-21T00:55:37;15.30;99.90
53208;DHT22;39093;52.788;6.940;2023-05-21T00:58:05;15.40;99.90
53208;DHT22;39093;52.788;6.940;2023-05-21T01:00:33;15.30;99.90
53208;DHT22;39093;52.788;6.940;2023-05-21T01:03:01;15.30;99.90
53208;DHT22;39093;52.788;6.940;2023-05-21T01:05:28;15.30;99.90
53208;DHT22;39093;52.788;6.940;2023-05-21T01:07:56;15.30;99.90
53208;DHT22;39093;52.788;6.940;2023-05-21T01:10:25;15.30;99.90
53208;DHT22;39093;52.788;6.940;2023-05-21T01:12:54;15.30;99.90
53208;DHT22;39093;52.788;6.940;2023-05-21T01:15:23;15.30;99.90
53208;DHT22;39093;52.788;6.940;2023-05-21T01:17:50;15.30;99.90
53208;DHT22;39093;52.788;6.940;2023-05-21T01:20:19;15.30;99.90
53208;DHT22;39093;52.788;6.940;2023-05-21T01:23:07;15.30;99.90
53208;DHT22;39093;52.788;6.940;2023-05-21T01:25:39;15.20;99.90
53208;DHT22;39093;52.788;6.940;2023-05-21T01:28:17;15.20;99.90
53208;DHT22;39093;52.788;6.940;2023-05-21T01:30:45;15.20;99.90
53208;DHT22;39093;52.788;6.940;2023-05-21T01:33:25;15.20;99.90
53208;DHT22;39093;52.788;6.940;2023-05-21T01:36:05;15.10;99.90
53208;DHT22;39093;52.788;6.940;2023-05-21T01:38:42;15.10;99.90
53208;DHT22;39093;52.788;6.940;2023-05-21T01:41:12;15.00;99.90
53208;DHT22;39093;52.788;6.940;2023-05-21T01:43:42;15.00;99.90
53208;DHT22;39093;52.788;6.940;2023-05-21T01:46:13;14.90;99.90
53208;DHT22;39093;52.788;6.940;2023-05-21T01:48:41;14.90;99.90
53208;DHT22;39093;52.788;6.940;2023-05-21T01:51:09;14.90;99.90
53208;DHT22;39093;52.788;6.940;2023-05-21T01:53:36;14.90;99.90
53208;DHT22;39093;52.788;6.940;2023-05-21T01:56:06;14.80;99.90
53208;DHT22;39093;52.788;6.940;2023-05-21T01:58:33;14.80;99.90
53208;DHT22;39093;52.788;6.940;2023-05-21T02:01:00;14.80;99.90
53208;DHT22;39093;52.788;6.940;2023-05-21T02:03:29;14.70;99.90
53208;DHT22;39093;52.788;6.940;2023-05-21T02:05:57;14.70;99.90
53208;DHT22;39093;52.788;6.940;2023-05-21T02:08:24;14.70;99.90
53208;DHT22;39093;52.788;6.940;2023-05-21T02:10:52;14.70;99.90
53208;DHT22;39093;52.788;6.940;2023-05-21T02:13:19;14.70;99.90
53208;DHT22;39093;52.788;6.940;2023-05-21T02:15:50;14.70;99.90
53208;DHT22;39093;52.788;6.940;2023-05-21T02:18:21;14.70;99.90
53208;DHT22;39093;52.788;6.940;2023-05-21T02:20:47;14.60;99.90
53208;DHT22;39093;52.788;6.940;2023-05-21T02:23:14;14.60;99.90
53208;DHT22;39093;52.788;6.940;2023-05-21T02:25:41;14.60;99.90
53208;DHT22;39093;52.788;6.940;2023-05-21T02:28:12;14.60;99.90
53208;DHT22;39093;52.788;6.940;2023-05-21T02:30:39;14.60;99.90
53208;DHT22;39093;52.788;6.940;2023-05-21T02:33:06;14.60;99.90
53208;DHT22;39093;52.788;6.940;2023-05-21T02:35:35;14.50;99.90
53208;DHT22;39093;52.788;6.940;2023-05-21T02:38:02;14.60;99.90
53208;DHT22;39093;52.788;6.940;2023-05-21T02:40:29;14.60;99.90
53208;DHT22;39093;52.788;6.940;2023-05-21T02:42:56;14.50;99.90
53208;DHT22;39093;52.788;6.940;2023-05-21T02:45:23;14.50;99.90
53208;DHT22;39093;52.788;6.940;2023-05-21T02:47:50;14.50;99.90
53208;DHT22;39093;52.788;6.940;2023-05-21T02:50:17;14.50;99.90
53208;DHT22;39093;52.788;6.940;2023-05-21T02:52:49;14.50;99.90
53208;DHT22;39093;52.788;6.940;2023-05-21T02:55:16;14.40;99.90
53208;DHT22;39093;52.788;6.940;2023-05-21T02:57:43;14.40;99.90
53208;DHT22;39093;52.788;6.940;2023-05-21T03:00:10;14.40;99.90
53208;DHT22;39093;52.788;6.940;2023-05-21T03:02:37;14.40;99.90
53208;DHT22;39093;52.788;6.940;2023-05-21T03:05:05;14.40;99.90
53208;DHT22;39093;52.788;6.940;2023-05-21T03:07:32;14.40;99.90
53208;DHT22;39093;52.788;6.940;2023-05-21T03:09:59;14.40;99.90
53208;DHT22;39093;52.788;6.940;2023-05-21T03:12:26;14.40;99.90
53208;DHT22;39093;52.788;6.940;2023-05-21T03:14:53;14.40;99.90
53208;DHT22;39093;52.788;6.940;2023-05-21T03:17:22;14.40;99.90
53208;DHT22;39093;52.788;6.940;2023-05-21T03:19:49;14.40;99.90
53208;DHT22;39093;52.788;6.940;2023-05-21T03:22:24;14.40;99.90
53208;DHT22;39093;52.788;6.940;2023-05-21T03:24:51;14.30;99.90
53208;DHT22;39093;52.788;6.940;2023-05-21T03:27:19;14.30;99.90
53208;DHT22;39093;52.788;6.940;2023-05-21T03:29:46;14.30;99.90
53208;DHT22;39093;52.788;6.940;2023-05-21T03:32:12;14.30;99.90
53208;DHT22;39093;52.788;6.940;2023-05-21T03:34:40;14.30;99.90
53208;DHT22;39093;52.788;6.940;2023-05-21T03:37:07;14.30;99.90
53208;DHT22;39093;52.788;6.940;2023-05-21T03:39:33;14.30;99.90
53208;DHT22;39093;52.788;6.940;2023-05-21T03:42:00;14.30;99.90
53208;DHT22;39093;52.788;6.940;2023-05-21T03:44:50;14.20;99.90
53208;DHT22;39093;52.788;6.940;2023-05-21T03:47:17;14.30;99.90
53208;DHT22;39093;52.788;6.940;2023-05-21T03:49:44;14.30;99.90
53208;DHT22;39093;52.788;6.940;2023-05-21T03:52:11;14.30;99.90
53208;DHT22;39093;52.788;6.940;2023-05-21T03:54:38;14.30;99.90
53208;DHT22;39093;52.788;6.940;2023-05-21T03:57:05;14.30;99.90
53208;DHT22;39093;52.788;6.940;2023-05-21T03:59:32;14.30;99.90
53208;DHT22;39093;52.788;6.940;2023-05-21T04:01:59;14.20;99.90
53208;DHT22;39093;52.788;6.940;2023-05-21T04:04:25;14.20;99.90
53208;DHT22;39093;52.788;6.940;2023-05-21T04:06:55;14.20;99.90
53208;DHT22;39093;52.788;6.940;2023-05-21T04:09:22;14.20;99.90
53208;DHT22;39093;52.788;6.940;2023-05-21T04:11:49;14.20;99.90
53208;DHT22;39093;52.788;6.940;2023-05-21T04:14:16;14.10;99.90
53208;DHT22;39093;52.788;6.940;2023-05-21T04:16:43;14.10;99.90
53208;DHT22;39093;52.788;6.940;2023-05-21T04:19:09;14.10;99.90
53208;DHT22;39093;52.788;6.940;2023-05-21T04:21:36;14.10;99.90
53208;DHT22;39093;52.788;6.940;2023-05-21T04:24:03;14.10;99.90
53208;DHT22;39093;52.788;6.940;2023-05-21T04:26:30;14.10;99.90
53208;DHT22;39093;52.788;6.940;2023-05-21T04:28:59;14.10;99.90
53208;DHT22;39093;52.788;6.940;2023-05-21T04:31:31;14.10;99.90
53208;DHT22;39093;52.788;6.940;2023-05-21T04:33:58;14.10;99.90
53208;DHT22;39093;52.788;6.940;2023-05-21T04:36:25;14.10;99.90
53208;DHT22;39093;52.788;6.940;2023-05-21T04:38:54;14.10;99.90
53208;DHT22;39093;52.788;6.940;2023-05-21T04:41:21;14.20;99.90
53208;DHT22;39093;52.788;6.940;2023-05-21T04:43:48;14.20;99.90
53208;DHT22;39093;52.788;6.940;2023-05-21T04:46:21;14.20;99.90
53208;DHT22;39093;52.788;6.940;2023-05-21T04:48:51;14.20;99.90
53208;DHT22;39093;52.788;6.940;2023-05-21T04:51:21;14.20;99.90
53208;DHT22;39093;52.788;6.940;2023-05-21T04:54:01;14.20;99.90
53208;DHT22;39093;52.788;6.940;2023-05-21T04:56:29;14.20;99.90
53208;DHT22;39093;52.788;6.940;2023-05-21T04:58:56;14.20;99.90
53208;DHT22;39093;52.788;6.940;2023-05-21T05:01:24;14.20;99.90
53208;DHT22;39093;52.788;6.940;2023-05-21T05:03:53;14.20;99.90
53208;DHT22;39093;52.788;6.940;2023-05-21T05:06:20;14.10;99.90
53208;DHT22;39093;52.788;6.940;2023-05-21T05:08:48;14.20;99.90
53208;DHT22;39093;52.788;6.940;2023-05-21T05:11:16;14.20;99.90
53208;DHT22;39093;52.788;6.940;2023-05-21T05:13:45;14.20;99.90
53208;DHT22;39093;52.788;6.940;2023-05-21T05:16:12;14.20;99.90
53208;DHT22;39093;52.788;6.940;2023-05-21T05:18:45;14.20;99.90
53208;DHT22;39093;52.788;6.940;2023-05-21T05:21:12;14.30;99.90
53208;DHT22;39093;52.788;6.940;2023-05-21T05:23:39;14.20;99.90
53208;DHT22;39093;52.788;6.940;2023-05-21T05:26:06;14.30;99.90
53208;DHT22;39093;52.788;6.940;2023-05-21T05:28:32;14.30;99.90
53208;DHT22;39093;52.788;6.940;2023-05-21T05:30:59;14.30;99.90
53208;DHT22;39093;52.788;6.940;2023-05-21T05:33:27;14.40;99.90
53208;DHT22;39093;52.788;6.940;2023-05-21T05:35:54;14.30;99.90
53208;DHT22;39093;52.788;6.940;2023-05-21T05:38:21;14.30;99.90
53208;DHT22;39093;52.788;6.940;2023-05-21T05:40:47;14.30;99.90
53208;DHT22;39093;52.788;6.940;2023-05-21T05:43:15;14.30;99.90
53208;DHT22;39093;52.788;6.940;2023-05-21T05:45:42;14.30;99.90
53208;DHT22;39093;52.788;6.940;2023-05-21T05:48:09;14.30;99.90
53208;DHT22;39093;52.788;6.940;2023-05-21T05:50:38;14.30;99.90
53208;DHT22;39093;52.788;6.940;2023-05-21T05:53:08;14.30;99.90
53208;DHT22;39093;52.788;6.940;2023-05-21T05:55:35;14.40;99.90
53208;DHT22;39093;52.788;6.940;2023-05-21T05:58:02;14.40;99.90
53208;DHT22;39093;52.788;6.940;2023-05-21T06:00:29;14.40;99.90
53208;DHT22;39093;52.788;6.940;2023-05-21T06:02:56;14.40;99.90
53208;DHT22;39093;52.788;6.940;2023-05-21T06:05:23;14.50;99.90
53208;DHT22;39093;52.788;6.940;2023-05-21T06:07:50;14.50;99.90
53208;DHT22;39093;52.788;6.940;2023-05-21T06:10:17;14.50;99.90
53208;DHT22;39093;52.788;6.940;2023-05-21T06:12:46;14.50;99.90
53208;DHT22;39093;52.788;6.940;2023-05-21T06:15:13;14.50;99.90
53208;DHT22;39093;52.788;6.940;2023-05-21T06:17:44;14.60;99.90
53208;DHT22;39093;52.788;6.940;2023-05-21T06:20:11;14.60;99.90
53208;DHT22;39093;52.788;6.940;2023-05-21T06:22:38;14.60;99.90
53208;DHT22;39093;52.788;6.940;2023-05-21T06:25:06;14.60;99.90
53208;DHT22;39093;52.788;6.940;2023-05-21T06:27:33;14.70;99.90
53208;DHT22;39093;52.788;6.940;2023-05-21T06:30:00;14.70;99.90
53208;DHT22;39093;52.788;6.940;2023-05-21T06:32:27;14.70;99.90
53208;DHT22;39093;52.788;6.940;2023-05-21T06:34:54;14.70;99.90
53208;DHT22;39093;52.788;6.940;2023-05-21T06:37:21;14.80;99.90
53208;DHT22;39093;52.788;6.940;2023-05-21T06:39:52;14.80;99.90
53208;DHT22;39093;52.788;6.940;2023-05-21T06:42:18;14.80;99.90
53208;DHT22;39093;52.788;6.940;2023-05-21T06:44:45;14.80;99.90
53208;DHT22;39093;52.788;6.940;2023-05-21T06:47:12;14.90;99.90
53208;DHT22;39093;52.788;6.940;2023-05-21T06:49:39;14.90;99.90
53208;DHT22;39093;52.788;6.940;2023-05-21T06:52:06;14.90;99.90
53208;DHT22;39093;52.788;6.940;2023-05-21T06:54:33;14.90;99.90
53208;DHT22;39093;52.788;6.940;2023-05-21T06:57:00;14.90;99.90
53208;DHT22;39093;52.788;6.940;2023-05-21T06:59:27;14.90;99.90
53208;DHT22;39093;52.788;6.940;2023-05-21T07:01:54;15.00;99.90
53208;DHT22;39093;52.788;6.940;2023-05-21T07:04:21;15.00;99.90
53208;DHT22;39093;52.788;6.940;2023-05-21T07:06:48;15.00;99.90
53208;DHT22;39093;52.788;6.940;2023-05-21T07:09:15;15.10;99.90
53208;DHT22;39093;52.788;6.940;2023-05-21T07:11:43;15.20;99.90
53208;DHT22;39093;52.788;6.940;2023-05-21T07:14:10;15.20;99.90
53208;DHT22;39093;52.788;6.940;2023-05-21T07:16:37;15.20;99.90
53208;DHT22;39093;52.788;6.940;2023-05-21T07:19:05;15.30;99.90
53208;DHT22;39093;52.788;6.940;2023-05-21T07:21:32;15.40;99.90
53208;DHT22;39093;52.788;6.940;2023-05-21T07:23:59;15.40;99.90
53208;DHT22;39093;52.788;6.940;2023-05-21T07:26:26;15.40;99.90
53208;DHT22;39093;52.788;6.940;2023-05-21T07:28:53;15.50;99.90
53208;DHT22;39093;52.788;6.940;2023-05-21T07:31:20;15.60;99.90
53208;DHT22;39093;52.788;6.940;2023-05-21T07:33:47;15.60;99.90
53208;DHT22;39093;52.788;6.940;2023-05-21T07:36:14;15.60;99.90
53208;DHT22;39093;52.788;6.940;2023-05-21T07:38:42;15.70;99.90
53208;DHT22;39093;52.788;6.940;2023-05-21T07:41:09;15.70;99.90
53208;DHT22;39093;52.788;6.940;2023-05-21T07:43:37;15.80;99.90
53208;DHT22;39093;52.788;6.940;2023-05-21T07:46:04;15.80;99.90
53208;DHT22;39093;52.788;6.940;2023-05-21T07:48:31;15.80;99.90
53208;DHT22;39093;52.788;6.940;2023-05-21T07:51:01;15.90;99.90
53208;DHT22;39093;52.788;6.940;2023-05-21T07:53:29;16.00;99.90
53208;DHT22;39093;52.788;6.940;2023-05-21T07:55:58;16.00;99.90
53208;DHT22;39093;52.788;6.940;2023-05-21T07:58:25;16.00;99.90
53208;DHT22;39093;52.788;6.940;2023-05-21T08:00:52;16.10;99.90
53208;DHT22;39093;52.788;6.940;2023-05-21T08:03:19;16.10;99.90
53208;DHT22;39093;52.788;6.940;2023-05-21T08:05:47;16.20;99.90
53208;DHT22;39093;52.788;6.940;2023-05-21T08:08:16;16.30;99.90
53208;DHT22;39093;52.788;6.940;2023-05-21T08:10:43;16.40;99.90
53208;DHT22;39093;52.788;6.940;2023-05-21T08:13:11;16.50;99.90
53208;DHT22;39093;52.788;6.940;2023-05-21T08:15:38;16.50;99.90
53208;DHT22;39093;52.788;6.940;2023-05-21T08:18:05;16.60;99.90
53208;DHT22;39093;52.788;6.940;2023-05-21T08:20:32;16.70;99.90
53208;DHT22;39093;52.788;6.940;2023-05-21T08:22:59;16.90;99.90
53208;DHT22;39093;52.788;6.940;2023-05-21T08:25:26;16.90;99.90
53208;DHT22;39093;52.788;6.940;2023-05-21T08:27:53;17.00;99.90
53208;DHT22;39093;52.788;6.940;2023-05-21T08:30:20;17.00;99.90
53208;DHT22;39093;52.788;6.940;2023-05-21T08:32:48;17.20;99.90
53208;DHT22;39093;52.788;6.940;2023-05-21T08:35:15;17.40;99.90
53208;DHT22;39093;52.788;6.940;2023-05-21T08:37:42;17.70;99.90
53208;DHT22;39093;52.788;6.940;2023-05-21T08:40:09;18.00;99.90
53208;DHT22;39093;52.788;6.940;2023-05-21T08:42:45;18.30;99.90
53208;DHT22;39093;52.788;6.940;2023-05-21T08:45:14;18.50;99.90
53208;DHT22;39093;52.788;6.940;2023-05-21T08:47:43;18.70;99.90
53208;DHT22;39093;52.788;6.940;2023-05-21T08:50:12;18.80;99.90
53208;DHT22;39093;52.788;6.940;2023-05-21T08:52:40;19.00;99.90
53208;DHT22;39093;52.788;6.940;2023-05-21T08:55:08;19.10;99.90
53208;DHT22;39093;52.788;6.940;2023-05-21T08:57:36;19.20;99.90
53208;DHT22;39093;52.788;6.940;2023-05-21T09:00:04;19.30;99.90
53208;DHT22;39093;52.788;6.940;2023-05-21T09:02:33;19.00;99.90
53208;DHT22;39093;52.788;6.940;2023-05-21T09:05:01;19.10;99.90
53208;DHT22;39093;52.788;6.940;2023-05-21T09:07:30;19.10;99.90
53208;DHT22;39093;52.788;6.940;2023-05-21T09:10:06;19.10;99.90
53208;DHT22;39093;52.788;6.940;2023-05-21T09:12:37;19.10;99.90
53208;DHT22;39093;52.788;6.940;2023-05-21T09:15:04;19.10;99.90
53208;DHT22;39093;52.788;6.940;2023-05-21T09:17:31;19.10;99.90
53208;DHT22;39093;52.788;6.940;2023-05-21T09:20:12;19.10;99.90
53208;DHT22;39093;52.788;6.940;2023-05-21T09:22:45;19.10;99.90
53208;DHT22;39093;52.788;6.940;2023-05-21T09:25:15;19.20;99.90
53208;DHT22;39093;52.788;6.940;2023-05-21T09:27:42;19.30;99.90
53208;DHT22;39093;52.788;6.940;2023-05-21T09:30:11;19.40;99.90
53208;DHT22;39093;52.788;6.940;2023-05-21T09:32:39;19.40;99.90
53208;DHT22;39093;52.788;6.940;2023-05-21T09:35:08;19.30;99.90
53208;DHT22;39093;52.788;6.940;2023-05-21T09:37:40;19.20;99.90
53208;DHT22;39093;52.788;6.940;2023-05-21T09:42:43;19.30;99.90
53208;DHT22;39093;52.788;6.940;2023-05-21T09:45:11;19.20;99.90
53208;DHT22;39093;52.788;6.940;2023-05-21T09:47:42;19.30;99.90
53208;DHT22;39093;52.788;6.940;2023-05-21T09:50:11;19.20;99.90
53208;DHT22;39093;52.788;6.940;2023-05-21T09:52:38;19.20;99.90
53208;DHT22;39093;52.788;6.940;2023-05-21T09:55:12;19.30;99.90
53208;DHT22;39093;52.788;6.940;2023-05-21T09:57:43;19.20;99.90
53208;DHT22;39093;52.788;6.940;2023-05-21T10:00:17;19.30;99.90
53208;DHT22;39093;52.788;6.940;2023-05-21T10:02:45;19.40;99.90
53208;DHT22;39093;52.788;6.940;2023-05-21T10:05:14;19.40;99.90
53208;DHT22;39093;52.788;6.940;2023-05-21T10:07:47;19.60;99.90
53208;DHT22;39093;52.788;6.940;2023-05-21T10:10:14;19.70;99.90
53208;DHT22;39093;52.788;6.940;2023-05-21T10:12:44;19.70;99.90
53208;DHT22;39093;52.788;6.940;2023-05-21T10:15:16;19.80;99.90
53208;DHT22;39093;52.788;6.940;2023-05-21T10:17:47;19.90;99.90
53208;DHT22;39093;52.788;6.940;2023-05-21T10:20:15;20.00;99.90
53208;DHT22;39093;52.788;6.940;2023-05-21T10:22:43;20.10;99.90
53208;DHT22;39093;52.788;6.940;2023-05-21T10:25:12;20.30;99.90
53208;DHT22;39093;52.788;6.940;2023-05-21T10:27:40;20.50;99.90
53208;DHT22;39093;52.788;6.940;2023-05-21T10:30:08;20.60;99.90
53208;DHT22;39093;52.788;6.940;2023-05-21T10:32:35;20.90;99.90
53208;DHT22;39093;52.788;6.940;2023-05-21T10:35:07;21.10;99.90
53208;DHT22;39093;52.788;6.940;2023-05-21T10:37:34;21.10;99.90
53208;DHT22;39093;52.788;6.940;2023-05-21T10:40:02;21.30;99.90
53208;DHT22;39093;52.788;6.940;2023-05-21T10:53:21;22.10;99.50
53208;DHT22;39093;52.788;6.940;2023-05-21T10:55:58;22.30;99.40
53208;DHT22;39093;52.788;6.940;2023-05-21T11:01:32;22.30;99.10
53208;DHT22;39093;52.788;6.940;2023-05-21T11:04:02;22.50;99.80
53208;DHT22;39093;52.788;6.940;2023-05-21T11:06:29;22.50;99.30
53208;DHT22;39093;52.788;6.940;2023-05-21T11:09:01;22.70;99.20
53208;DHT22;39093;52.788;6.940;2023-05-21T11:11:50;22.70;98.70
53208;DHT22;39093;52.788;6.940;2023-05-21T11:14:38;22.90;98.80
53208;DHT22;39093;52.788;6.940;2023-05-21T11:19:38;22.70;98.20
53208;DHT22;39093;52.788;6.940;2023-05-21T11:22:19;22.90;97.90
53208;DHT22;39093;52.788;6.940;2023-05-21T11:24:47;22.90;98.30
53208;DHT22;39093;52.788;6.940;2023-05-21T11:27:39;23.10;98.60
53208;DHT22;39093;52.788;6.940;2023-05-21T11:30:15;23.50;98.70
53208;DHT22;39093;52.788;6.940;2023-05-21T11:38:11;24.20;97.40
53208;DHT22;39093;52.788;6.940;2023-05-21T11:40:51;24.30;96.60
53208;DHT22;39093;52.788;6.940;2023-05-21T11:43:22;24.30;95.90
53208;DHT22;39093;52.788;6.940;2023-05-21T11:45:51;24.60;96.00
53208;DHT22;39093;52.788;6.940;2023-05-21T11:48:20;24.70;96.80
53208;DHT22;39093;52.788;6.940;2023-05-21T11:50:53;25.10;96.30
53208;DHT22;39093;52.788;6.940;2023-05-21T11:53:20;25.20;94.90
53208;DHT22;39093;52.788;6.940;2023-05-21T11:55:47;25.40;95.20
53208;DHT22;39093;52.788;6.940;2023-05-21T11:58:14;25.60;94.50
53208;DHT22;39093;52.788;6.940;2023-05-21T12:00:45;25.80;94.00
53208;DHT22;39093;52.788;6.940;2023-05-21T12:03:13;25.90;93.00
53208;DHT22;39093;52.788;6.940;2023-05-21T12:06:03;25.90;92.90
53208;DHT22;39093;52.788;6.940;2023-05-21T12:08:31;26.10;93.90
53208;DHT22;39093;52.788;6.940;2023-05-21T12:10:58;26.20;92.40
53208;DHT22;39093;52.788;6.940;2023-05-21T12:13:26;26.40;92.40
53208;DHT22;39093;52.788;6.940;2023-05-21T12:15:53;25.90;91.70
53208;DHT22;39093;52.788;6.940;2023-05-21T12:18:20;26.20;92.30
53208;DHT22;39093;52.788;6.940;2023-05-21T12:20:48;26.50;92.10
53208;DHT22;39093;52.788;6.940;2023-05-21T12:23:24;26.60;92.10
53208;DHT22;39093;52.788;6.940;2023-05-21T12:25:51;26.70;91.30
53208;DHT22;39093;52.788;6.940;2023-05-21T12:28:24;26.90;90.90
53208;DHT22;39093;52.788;6.940;2023-05-21T12:30:51;27.20;89.80
53208;DHT22;39093;52.788;6.940;2023-05-21T12:33:19;27.10;90.50
53208;DHT22;39093;52.788;6.940;2023-05-21T12:35:49;27.30;90.30
53208;DHT22;39093;52.788;6.940;2023-05-21T12:38:17;27.40;90.20
53208;DHT22;39093;52.788;6.940;2023-05-21T12:40:44;27.50;90.00
53208;DHT22;39093;52.788;6.940;2023-05-21T12:43:11;27.80;87.70
53208;DHT22;39093;52.788;6.940;2023-05-21T12:45:38;27.80;87.60
53208;DHT22;39093;52.788;6.940;2023-05-21T12:48:06;27.90;86.60
53208;DHT22;39093;52.788;6.940;2023-05-21T12:50:33;27.90;86.00
53208;DHT22;39093;52.788;6.940;2023-05-21T12:53:02;28.10;85.90
53208;DHT22;39093;52.788;6.940;2023-05-21T12:55:30;28.10;86.80
53208;DHT22;39093;52.788;6.940;2023-05-21T12:58:02;28.30;85.60
53208;DHT22;39093;52.788;6.940;2023-05-21T13:00:32;28.50;83.30
53208;DHT22;39093;52.788;6.940;2023-05-21T13:03:01;28.40;84.00
53208;DHT22;39093;52.788;6.940;2023-05-21T13:05:39;28.50;85.30
53208;DHT22;39093;52.788;6.940;2023-05-21T13:08:07;28.60;84.50
53208;DHT22;39093;52.788;6.940;2023-05-21T13:10:36;28.70;84.30
53208;DHT22;39093;52.788;6.940;2023-05-21T13:13:06;29.00;82.40
53208;DHT22;39093;52.788;6.940;2023-05-21T13:15:33;28.90;82.80
53208;DHT22;39093;52.788;6.940;2023-05-21T13:18:00;28.80;80.60
53208;DHT22;39093;52.788;6.940;2023-05-21T13:20:27;28.50;81.20
53208;DHT22;39093;52.788;6.940;2023-05-21T13:22:55;28.30;83.30
53208;DHT22;39093;52.788;6.940;2023-05-21T13:25:23;28.40;83.60
53208;DHT22;39093;52.788;6.940;2023-05-21T13:27:53;28.60;81.20
53208;DHT22;39093;52.788;6.940;2023-05-21T13:30:21;28.70;80.80
53208;DHT22;39093;52.788;6.940;2023-05-21T13:32:48;28.80;80.70
53208;DHT22;39093;52.788;6.940;2023-05-21T13:35:15;28.90;79.80
53208;DHT22;39093;52.788;6.940;2023-05-21T13:37:43;28.90;80.40
53208;DHT22;39093;52.788;6.940;2023-05-21T13:40:12;29.10;79.60
53208;DHT22;39093;52.788;6.940;2023-05-21T13:42:42;29.10;79.20
53208;DHT22;39093;52.788;6.940;2023-05-21T13:45:11;29.20;79.10
53208;DHT22;39093;52.788;6.940;2023-05-21T13:47:39;29.30;77.80
53208;DHT22;39093;52.788;6.940;2023-05-21T13:50:07;29.20;78.30
53208;DHT22;39093;52.788;6.940;2023-05-21T13:52:35;29.10;78.00
53208;DHT22;39093;52.788;6.940;2023-05-21T13:55:02;29.00;78.20
53208;DHT22;39093;52.788;6.940;2023-05-21T13:57:29;29.20;78.50
53208;DHT22;39093;52.788;6.940;2023-05-21T13:59:58;29.50;78.50
53208;DHT22;39093;52.788;6.940;2023-05-21T14:02:25;29.80;78.10
53208;DHT22;39093;52.788;6.940;2023-05-21T14:04:52;29.90;77.60
53208;DHT22;39093;52.788;6.940;2023-05-21T14:07:19;29.80;77.70
53208;DHT22;39093;52.788;6.940;2023-05-21T14:09:47;29.90;77.80
53208;DHT22;39093;52.788;6.940;2023-05-21T14:12:15;29.90;76.60
53208;DHT22;39093;52.788;6.940;2023-05-21T14:14:42;29.70;76.80
53208;DHT22;39093;52.788;6.940;2023-05-21T14:17:09;29.40;77.70
53208;DHT22;39093;52.788;6.940;2023-05-21T14:19:36;29.20;77.00
53208;DHT22;39093;52.788;6.940;2023-05-21T14:22:03;28.80;78.00
53208;DHT22;39093;52.788;6.940;2023-05-21T14:24:30;28.50;78.50
53208;DHT22;39093;52.788;6.940;2023-05-21T14:26:57;28.50;79.70
53208;DHT22;39093;52.788;6.940;2023-05-21T14:29:24;28.50;79.80
53208;DHT22;39093;52.788;6.940;2023-05-21T14:31:51;28.50;78.20
53208;DHT22;39093;52.788;6.940;2023-05-21T14:34:18;27.90;79.40
53208;DHT22;39093;52.788;6.940;2023-05-21T14:36:45;27.50;80.30
53208;DHT22;39093;52.788;6.940;2023-05-21T14:39:12;27.10;81.10
53208;DHT22;39093;52.788;6.940;2023-05-21T14:41:39;27.00;81.30
53208;DHT22;39093;52.788;6.940;2023-05-21T14:44:06;27.20;82.70
53208;DHT22;39093;52.788;6.940;2023-05-21T14:46:33;27.60;83.00
53208;DHT22;39093;52.788;6.940;2023-05-21T14:49:01;27.90;81.80
53208;DHT22;39093;52.788;6.940;2023-05-21T14:51:29;28.30;82.50
53208;DHT22;39093;52.788;6.940;2023-05-21T14:53:57;28.70;80.80
53208;DHT22;39093;52.788;6.940;2023-05-21T14:56:25;29.20;79.30
53208;DHT22;39093;52.788;6.940;2023-05-21T14:58:53;29.70;78.60
53208;DHT22;39093;52.788;6.940;2023-05-21T15:01:20;29.80;77.10
53208;DHT22;39093;52.788;6.940;2023-05-21T15:03:47;30.00;77.10
53208;DHT22;39093;52.788;6.940;2023-05-21T15:06:15;30.20;77.00
53208;DHT22;39093;52.788;6.940;2023-05-21T15:08:42;30.50;77.30
53208;DHT22;39093;52.788;6.940;2023-05-21T15:11:09;30.70;77.20
53208;DHT22;39093;52.788;6.940;2023-05-21T15:13:37;30.80;75.80
53208;DHT22;39093;52.788;6.940;2023-05-21T15:16:04;30.50;76.00
53208;DHT22;39093;52.788;6.940;2023-05-21T15:18:32;30.30;75.60
53208;DHT22;39093;52.788;6.940;2023-05-21T15:20:59;30.00;77.00
53208;DHT22;39093;52.788;6.940;2023-05-21T15:23:26;29.80;78.00
53208;DHT22;39093;52.788;6.940;2023-05-21T15:25:53;30.00;77.70
53208;DHT22;39093;52.788;6.940;2023-05-21T15:28:20;30.20;76.50
53208;DHT22;39093;52.788;6.940;2023-05-21T15:30:48;30.00;77.50
53208;DHT22;39093;52.788;6.940;2023-05-21T15:33:15;29.90;77.30
53208;DHT22;39093;52.788;6.940;2023-05-21T15:35:42;29.90;76.00
53208;DHT22;39093;52.788;6.940;2023-05-21T15:38:10;29.40;77.00
53208;DHT22;39093;52.788;6.940;2023-05-21T15:40:38;29.00;77.60
53208;DHT22;39093;52.788;6.940;2023-05-21T15:43:07;28.70;79.00
53208;DHT22;39093;52.788;6.940;2023-05-21T15:45:34;28.20;79.80
53208;DHT22;39093;52.788;6.940;2023-05-21T15:48:01;27.90;81.00
53208;DHT22;39093;52.788;6.940;2023-05-21T15:50:28;27.80;81.50
53208;DHT22;39093;52.788;6.940;2023-05-21T15:52:55;27.70;80.50
53208;DHT22;39093;52.788;6.940;2023-05-21T15:55:22;27.50;80.50
53208;DHT22;39093;52.788;6.940;2023-05-21T15:57:49;27.10;81.30
53208;DHT22;39093;52.788;6.940;2023-05-21T16:00:16;26.90;83.00
53208;DHT22;39093;52.788;6.940;2023-05-21T16:02:43;26.80;83.50